Time;durP1;ratioP1;P1;durP2;ratioP2;P2;SDS_P1;SDS_P2;PMS_P1;PMS_P2;Temp;Humidity;BMP_temperature;BMP_pressure;BME280_temperature;BME280_humidity;BME280_pressure;Samples;Min_cycle;Max_cycle;Signal;HPM_P1;HPM_P2
2022/11/03 00:01:31;;;;;;;2.58;2.28;;;19.70;71.80;;;;;;5006331;28;20041;-18
2022/11/03 00:03:57;;;;;;;2.35;2.15;;;19.70;71.70;;;;;;5003246;28;20070;-19
2022/11/03 00:06:23;;;;;;;1.95;1.75;;;19.70;71.50;;;;;;5002378;28;20530;-18
2022/11/03 00:08:48;;;;;;;4.35;2.33;;;19.70;71.50;;;;;;5010987;28;20049;-19
2022/11/03 00:11:14;;;;;;;2.38;2.17;;;19.70;71.60;;;;;;5016639;28;20029;-18
2022/11/03 00:13:41;;;;;;;3.28;2.00;;;19.70;71.50;;;;;;5011070;28;20082;-19
2022/11/03 00:16:07;;;;;;;1.92;1.83;;;19.70;71.30;;;;;;5004092;28;20388;-18
2022/11/03 00:18:33;;;;;;;2.42;2.10;;;19.70;71.40;;;;;;5012868;28;21188;-19
2022/11/03 00:21:06;;;;;;;1.95;1.77;;;19.70;71.30;;;;;;5017309;28;20121;-18
2022/11/03 00:23:34;;;;;;;2.28;2.08;;;19.70;71.30;;;;;;5006259;28;20045;-18
2022/11/03 00:26:21;;;;;;;1.75;1.63;;;19.70;71.40;;;;;;5009838;28;20061;-18
2022/11/03 00:28:51;;;;;;;2.05;1.90;;;19.70;71.40;;;;;;5011483;28;22290;-23
2022/11/03 00:31:19;;;;;;;2.47;1.95;;;19.70;71.30;;;;;;5016514;28;20129;-17
2022/11/03 00:33:45;;;;;;;1.77;1.67;;;19.80;71.30;;;;;;5013973;28;20136;-18
2022/11/03 00:36:12;;;;;;;1.92;1.83;;;19.70;71.50;;;;;;5004403;28;20045;-18
2022/11/03 00:38:38;;;;;;;2.00;1.90;;;19.70;71.70;;;;;;5015102;28;20049;-14
2022/11/03 00:41:04;;;;;;;2.05;1.67;;;19.70;71.90;;;;;;4994619;28;20504;-14
2022/11/03 00:43:31;;;;;;;2.03;1.50;;;19.70;71.90;;;;;;4994074;28;20046;-13
2022/11/03 00:45:56;;;;;;;1.80;1.70;;;19.70;71.70;;;;;;4994497;28;20062;-12
2022/11/03 00:48:29;;;;;;;1.80;1.70;;;19.70;72.00;;;;;;4988606;28;20092;-14
2022/11/03 00:51:20;;;;;;;1.90;1.77;;;19.70;71.90;;;;;;4993611;28;20113;-12
2022/11/03 00:53:56;;;;;;;2.10;1.40;;;19.70;72.10;;;;;;5005592;28;20401;-12
2022/11/03 00:56:31;;;;;;;1.98;1.80;;;19.70;71.80;;;;;;4994420;28;20519;-13
2022/11/03 00:58:57;;;;;;;1.65;1.38;;;19.70;71.80;;;;;;4989919;28;20396;-13
2022/11/03 01:01:24;;;;;;;1.75;1.65;;;19.70;71.90;;;;;;4984245;28;20054;-13
2022/11/03 01:06:50;;;;;;;1.60;1.50;;;19.70;72.00;;;;;;5004653;28;20071;-13
2022/11/03 01:09:22;;;;;;;1.98;1.63;;;19.70;71.90;;;;;;5016031;28;20049;-12
2022/11/03 01:11:59;;;;;;;1.58;1.48;;;19.70;71.90;;;;;;5008247;28;20128;-12
2022/11/03 01:14:27;;;;;;;1.60;1.40;;;19.70;72.00;;;;;;4993744;28;20061;-13
2022/11/03 01:16:53;;;;;;;1.50;1.40;;;19.70;72.00;;;;;;4993630;28;20534;-12
2022/11/03 01:19:18;;;;;;;1.30;1.20;;;19.70;72.10;;;;;;5004048;28;20050;-13
2022/11/03 01:21:44;;;;;;;3.40;1.60;;;19.70;71.90;;;;;;5009992;28;20057;-13
2022/11/03 01:24:09;;;;;;;1.52;1.42;;;19.70;72.10;;;;;;5014145;28;20038;-12
2022/11/03 01:26:35;;;;;;;1.63;1.42;;;19.70;72.30;;;;;;5004211;28;20061;-12
2022/11/03 01:29:01;;;;;;;1.50;1.40;;;19.70;71.90;;;;;;5011625;28;20041;-13
2022/11/03 01:31:27;;;;;;;1.58;1.33;;;19.70;72.10;;;;;;5006313;28;20058;-12
2022/11/03 01:33:53;;;;;;;1.52;1.23;;;19.70;72.20;;;;;;4992230;28;20081;-12
2022/11/03 01:36:19;;;;;;;1.27;1.17;;;19.70;72.10;;;;;;5007823;28;20129;-12
2022/11/03 01:38:45;;;;;;;1.30;1.17;;;19.70;71.90;;;;;;5008800;28;20150;-13
2022/11/03 01:41:19;;;;;;;1.95;1.40;;;19.70;71.90;;;;;;4994450;28;20041;-12
2022/11/03 01:43:50;;;;;;;1.50;1.30;;;19.70;71.90;;;;;;4993835;28;20513;-12
2022/11/03 01:46:17;;;;;;;1.20;1.10;;;19.70;71.90;;;;;;4992715;28;20046;-13
2022/11/03 01:49:07;;;;;;;1.20;1.10;;;19.70;71.90;;;;;;4995743;28;20204;-12
2022/11/03 01:51:33;;;;;;;1.38;1.27;;;19.70;72.20;;;;;;4994372;28;20054;-13
2022/11/03 01:53:58;;;;;;;1.30;1.20;;;19.70;71.80;;;;;;5006053;28;20113;-13
2022/11/03 01:56:24;;;;;;;1.42;1.20;;;19.70;71.70;;;;;;5011030;28;20169;-13
2022/11/03 01:58:51;;;;;;;1.10;1.00;;;19.70;71.90;;;;;;5004628;28;20062;-13
2022/11/03 02:01:16;;;;;;;1.27;1.13;;;19.80;71.70;;;;;;4987320;28;20486;-13
2022/11/03 02:03:45;;;;;;;1.60;1.20;;;19.70;71.50;;;;;;5020538;28;20113;-13
2022/11/03 02:06:11;;;;;;;1.75;1.20;;;19.70;72.60;;;;;;5010019;28;20128;-13
2022/11/03 02:08:53;;;;;;;1.35;1.25;;;19.70;71.90;;;;;;5011257;28;20584;-13
2022/11/03 02:14:03;;;;;;;;;;;19.70;72.00;;;;;;5006694;28;20068;-13
2022/11/03 02:16:30;;;;;;;0.90;0.90;;;19.70;71.50;;;;;;5008676;28;20302;-13
2022/11/03 02:18:56;;;;;;;0.88;0.88;;;19.70;71.90;;;;;;5013089;28;20046;-12
2022/11/03 02:21:24;;;;;;;1.23;1.13;;;19.60;71.90;;;;;;5002564;28;20103;-13
2022/11/03 02:24:22;;;;;;;1.10;1.00;;;19.60;72.30;;;;;;5006273;28;20530;-12
2022/11/03 02:26:47;;;;;;;0.95;0.95;;;19.60;72.30;;;;;;4998610;28;20125;-13
2022/11/03 02:29:13;;;;;;;1.33;1.23;;;19.60;72.20;;;;;;5011484;28;20493;-12
2022/11/03 02:31:45;;;;;;;1.42;1.10;;;19.60;72.10;;;;;;5007129;28;20049;-19
2022/11/03 02:34:15;;;;;;;1.20;1.10;;;19.70;71.50;;;;;;5010085;28;20103;-13
2022/11/03 02:36:45;;;;;;;1.15;1.10;;;19.60;72.00;;;;;;5006314;28;20136;-13
2022/11/03 02:39:22;;;;;;;1.17;1.08;;;19.60;72.10;;;;;;4990284;28;20049;-19
2022/11/03 02:41:48;;;;;;;1.10;0.90;;;19.60;71.80;;;;;;4989645;28;20046;-13
2022/11/03 02:44:15;;;;;;;1.17;1.08;;;19.50;71.70;;;;;;4985279;28;20042;-13
2022/11/03 02:46:42;;;;;;;1.48;1.10;;;19.50;71.90;;;;;;4993640;28;20493;-14
2022/11/03 02:49:08;;;;;;;1.05;0.95;;;19.60;71.80;;;;;;4990997;28;20608;-13
2022/11/03 02:51:33;;;;;;;1.00;0.88;;;19.50;71.80;;;;;;4989863;28;20050;-16
2022/11/03 02:54:05;;;;;;;2.42;0.95;;;19.60;71.70;;;;;;4986213;28;20056;-13
2022/11/03 02:56:31;;;;;;;1.17;1.08;;;19.50;72.50;;;;;;4987898;28;20538;-13
2022/11/03 02:59:00;;;;;;;1.20;1.10;;;19.50;71.50;;;;;;4989677;28;20137;-13
2022/11/03 03:01:33;;;;;;;0.85;0.65;;;19.60;71.50;;;;;;4988632;28;20435;-14
2022/11/03 03:04:00;;;;;;;1.20;1.10;;;19.60;71.50;;;;;;4990114;28;20050;-13
2022/11/03 03:06:44;;;;;;;1.10;1.00;;;19.60;71.20;;;;;;5009372;28;20050;-14
2022/11/03 03:09:12;;;;;;;;;;;19.50;71.40;;;;;;5012559;28;20046;-13
2022/11/03 03:11:38;;;;;;;0.93;0.68;;;19.50;71.60;;;;;;5014883;28;19921;-13
2022/11/03 03:14:08;;;;;;;0.80;0.80;;;19.50;71.70;;;;;;5011863;28;20042;-14
2022/11/03 03:16:37;;;;;;;1.00;0.70;;;19.50;71.80;;;;;;5011026;28;20058;-12
2022/11/03 03:19:16;;;;;;;0.98;0.80;;;19.50;71.70;;;;;;5019798;28;20079;-13
2022/11/03 03:21:43;;;;;;;1.02;0.85;;;19.50;71.70;;;;;;5011953;28;20045;-13
2022/11/03 03:24:17;;;;;;;0.90;0.90;;;19.50;71.90;;;;;;5010609;28;20053;-14
2022/11/03 03:26:45;;;;;;;1.40;1.02;;;19.50;71.90;;;;;;5030224;28;20103;-12
2022/11/03 03:29:16;;;;;;;0.98;0.90;;;19.50;71.80;;;;;;5010798;28;20115;-20
2022/11/03 03:31:46;;;;;;;0.77;0.77;;;19.50;71.60;;;;;;4989930;28;20038;-16
2022/11/03 03:34:12;;;;;;;0.70;0.70;;;19.50;71.70;;;;;;4632909;28;10000568;-12
2022/11/03 03:36:37;;;;;;;0.80;0.80;;;19.50;73.10;;;;;;4986231;28;20097;-12
2022/11/03 03:39:03;;;;;;;0.88;0.70;;;19.50;72.40;;;;;;4988418;28;20077;-13
2022/11/03 03:41:31;;;;;;;1.13;1.00;;;19.50;72.50;;;;;;4988381;28;20093;-13
2022/11/03 03:43:59;;;;;;;0.60;0.60;;;19.50;72.50;;;;;;4986194;28;20046;-12
2022/11/03 03:46:28;;;;;;;0.85;0.85;;;19.60;72.00;;;;;;4991671;28;20049;-13
2022/11/03 03:48:53;;;;;;;0.60;0.60;;;19.70;71.80;;;;;;4987939;28;20129;-13
2022/11/03 03:51:21;;;;;;;1.10;0.77;;;19.80;71.30;;;;;;4996017;28;20128;-12
2022/11/03 03:53:50;;;;;;;0.90;0.90;;;19.70;71.80;;;;;;5010420;28;20080;-16
2022/11/03 03:56:18;;;;;;;1.00;0.80;;;19.80;71.70;;;;;;5009982;28;20049;-13
2022/11/03 03:58:44;;;;;;;0.93;0.90;;;19.70;71.70;;;;;;5007313;28;20061;-13
2022/11/03 04:01:11;;;;;;;0.70;0.70;;;19.70;71.90;;;;;;5002805;28;20046;-13
2022/11/03 04:03:36;;;;;;;0.80;0.70;;;19.70;71.90;;;;;;5005177;28;20057;-13
2022/11/03 04:06:02;;;;;;;0.90;0.70;;;19.60;71.80;;;;;;4987164;28;20663;-12
2022/11/03 04:08:28;;;;;;;1.98;0.80;;;19.60;71.80;;;;;;4986664;28;20050;-15
2022/11/03 04:24:38;;;;;;;0.70;0.70;;;19.60;71.80;;;;;;5002728;28;20415;-13
2022/11/03 04:27:20;;;;;;;0.88;0.80;;;19.60;71.90;;;;;;5013260;28;20038;-12
2022/11/03 04:29:46;;;;;;;0.60;0.50;;;19.60;71.90;;;;;;5008035;28;20128;-12
2022/11/03 04:32:14;;;;;;;0.68;0.65;;;19.60;71.90;;;;;;4994295;28;20117;-13
2022/11/03 04:34:40;;;;;;;0.50;0.50;;;19.60;72.40;;;;;;4993844;28;20042;-13
2022/11/03 04:37:09;;;;;;;1.00;0.90;;;19.60;71.60;;;;;;5007094;28;20133;-13
2022/11/03 04:39:34;;;;;;;0.70;0.70;;;19.60;71.60;;;;;;5004871;28;20038;-13
2022/11/03 04:42:00;;;;;;;0.90;0.90;;;19.60;71.60;;;;;;5011280;28;20152;-13
2022/11/03 04:44:25;;;;;;;0.73;0.73;;;19.60;71.50;;;;;;5011962;28;20049;-12
2022/11/03 04:46:51;;;;;;;1.08;0.95;;;19.60;71.50;;;;;;5002797;28;20506;-13
2022/11/03 04:49:20;;;;;;;0.70;0.70;;;19.70;71.40;;;;;;5005568;28;20065;-13
2022/11/03 04:51:46;;;;;;;0.98;0.90;;;19.60;71.40;;;;;;5014237;28;20045;-12
2022/11/03 04:54:17;;;;;;;0.80;0.75;;;19.60;71.60;;;;;;5006167;28;20556;-12
2022/11/03 04:56:43;;;;;;;0.70;0.70;;;19.60;71.80;;;;;;4993374;28;20073;-13
2022/11/03 04:59:12;;;;;;;1.02;0.50;;;19.50;71.70;;;;;;4993231;28;20073;-24
2022/11/03 05:01:37;;;;;;;0.52;0.50;;;19.50;71.80;;;;;;4990119;28;20046;-13
2022/11/03 05:04:07;;;;;;;0.80;0.80;;;19.50;71.80;;;;;;4986064;28;20408;-18
2022/11/03 05:06:33;;;;;;;0.70;0.63;;;19.50;72.00;;;;;;4993264;28;20125;-12
2022/11/03 05:09:16;;;;;;;0.70;0.70;;;19.50;71.90;;;;;;4993893;28;20536;-14
2022/11/03 05:11:44;;;;;;;0.60;0.60;;;19.40;71.90;;;;;;4993589;28;20054;-13
2022/11/03 05:14:21;;;;;;;1.15;1.05;;;19.40;71.90;;;;;;4992171;28;20046;-13
2022/11/03 05:16:47;;;;;;;0.57;0.50;;;19.50;71.90;;;;;;4992187;28;20501;-13
2022/11/03 05:19:42;;;;;;;1.20;0.88;;;19.40;72.10;;;;;;5012504;28;20458;-13
2022/11/03 05:22:14;;;;;;;0.50;0.50;;;19.40;71.90;;;;;;5003239;28;20620;-13
2022/11/03 05:24:40;;;;;;;0.77;0.70;;;19.40;71.90;;;;;;5010370;28;20053;-13
2022/11/03 05:27:07;;;;;;;0.57;0.57;;;19.40;71.90;;;;;;5014097;28;20220;-13
2022/11/03 05:29:36;;;;;;;0.52;0.52;;;19.50;71.70;;;;;;4994193;28;20129;-13
2022/11/03 05:32:02;;;;;;;0.60;0.50;;;19.50;71.80;;;;;;4998363;28;20127;-13
2022/11/03 05:34:36;;;;;;;0.50;0.50;;;19.50;71.70;;;;;;4995460;28;20056;-13
2022/11/03 05:37:23;;;;;;;0.55;0.47;;;19.50;71.50;;;;;;4997169;28;20035;-13
2022/11/03 05:39:49;;;;;;;0.50;0.50;;;19.50;71.70;;;;;;5025427;28;20509;-13
2022/11/03 05:42:34;;;;;;;1.20;0.52;;;19.40;71.60;;;;;;5012469;28;20093;-13
2022/11/03 05:45:00;;;;;;;0.40;0.40;;;19.50;71.50;;;;;;5005048;28;20044;-13
2022/11/03 05:47:35;;;;;;;0.68;0.60;;;19.50;71.70;;;;;;5013415;28;20445;-14
2022/11/03 05:50:19;;;;;;;1.48;0.57;;;19.40;71.60;;;;;;5002638;28;20126;-12
2022/11/03 05:52:45;;;;;;;0.63;0.63;;;19.50;71.60;;;;;;5022627;28;20510;-17
2022/11/03 05:55:27;;;;;;;0.55;0.55;;;19.50;71.70;;;;;;5010413;28;20048;-14
2022/11/03 05:57:56;;;;;;;0.60;0.60;;;19.40;71.80;;;;;;5015366;28;20057;-13
2022/11/03 06:00:24;;;;;;;0.60;0.60;;;19.50;71.50;;;;;;4996062;28;20068;-13
2022/11/03 06:02:50;;;;;;;0.70;0.70;;;19.50;71.50;;;;;;5004574;28;20418;-13
2022/11/03 06:05:19;;;;;;;0.57;0.52;;;19.50;71.50;;;;;;5000857;28;20057;-13
2022/11/03 06:07:45;;;;;;;0.57;0.40;;;19.50;71.40;;;;;;4993363;28;20045;-13
2022/11/03 06:10:26;;;;;;;0.60;0.60;;;19.50;71.30;;;;;;4998898;28;20406;-13
2022/11/03 06:12:57;;;;;;;0.50;0.40;;;19.50;71.40;;;;;;5011446;28;20042;-13
2022/11/03 06:15:44;;;;;;;1.13;1.02;;;19.50;71.30;;;;;;5006626;28;20065;-13
2022/11/03 06:18:14;;;;;;;0.88;0.55;;;19.40;71.40;;;;;;5008333;28;20222;-15
2022/11/03 06:20:39;;;;;;;1.10;0.60;;;19.50;71.30;;;;;;5018929;28;20046;-13
2022/11/03 06:23:11;;;;;;;0.70;0.55;;;19.50;71.20;;;;;;5006588;28;20042;-12
2022/11/03 06:25:37;;;;;;;0.65;0.50;;;19.50;71.30;;;;;;5001825;28;20054;-13
2022/11/03 06:28:04;;;;;;;0.63;0.40;;;19.60;71.50;;;;;;5009007;28;20056;-13
2022/11/03 06:30:34;;;;;;;0.90;0.90;;;19.60;71.40;;;;;;4994270;28;20046;-13
2022/11/03 06:33:20;;;;;;;0.70;0.70;;;19.60;71.20;;;;;;4993104;28;20038;-13
2022/11/03 06:35:47;;;;;;;2.05;0.40;;;19.50;71.50;;;;;;4995449;28;20559;-13
2022/11/03 06:38:22;;;;;;;0.80;0.57;;;19.50;71.70;;;;;;4975421;28;20188;-12
2022/11/03 06:40:51;;;;;;;0.70;0.52;;;19.50;71.40;;;;;;4991265;28;20042;-20
2022/11/03 06:43:34;;;;;;;0.43;0.43;;;19.50;71.70;;;;;;4993469;28;20077;-21
2022/11/03 06:46:01;;;;;;;0.50;0.50;;;19.40;71.50;;;;;;4993856;28;20101;-21
2022/11/03 06:48:28;;;;;;;0.57;0.52;;;19.50;71.60;;;;;;4702202;28;10001151;-22
2022/11/03 06:50:55;;;;;;;0.40;0.40;;;19.50;71.30;;;;;;5002711;28;20322;-23
2022/11/03 06:53:24;;;;;;;1.20;0.50;;;19.50;71.50;;;;;;4991088;28;20149;-21
2022/11/03 06:55:50;;;;;;;0.43;0.40;;;19.70;71.20;;;;;;5002759;28;20550;-21
2022/11/03 06:58:30;;;;;;;0.70;0.45;;;19.70;71.00;;;;;;5009671;28;20156;-20
2022/11/03 07:01:09;;;;;;;0.50;0.47;;;19.60;71.40;;;;;;5024880;28;20103;-21
2022/11/03 07:03:36;;;;;;;0.80;0.52;;;19.50;71.70;;;;;;5007144;28;20429;-21
2022/11/03 07:06:18;;;;;;;0.80;0.40;;;19.50;71.80;;;;;;5004415;28;20056;-21
2022/11/03 07:08:45;;;;;;;0.88;0.47;;;19.50;71.90;;;;;;5019624;28;20045;-21
2022/11/03 07:11:21;;;;;;;1.35;0.70;;;19.40;72.10;;;;;;4992910;28;20062;-21
2022/11/03 07:13:56;;;;;;;0.98;0.68;;;19.50;71.90;;;;;;5004725;28;21096;-21
2022/11/03 07:16:33;;;;;;;0.90;0.50;;;19.50;71.90;;;;;;5009391;28;20076;-20
2022/11/03 07:19:00;;;;;;;0.77;0.40;;;19.50;71.90;;;;;;4984656;28;20093;-21
2022/11/03 07:21:33;;;;;;;0.50;0.50;;;19.50;71.80;;;;;;5005330;28;20096;-21
2022/11/03 07:23:59;;;;;;;0.70;0.60;;;19.50;71.70;;;;;;5022246;28;20060;-21
2022/11/03 07:26:26;;;;;;;0.55;0.55;;;19.50;71.60;;;;;;5003188;28;20093;-21
2022/11/03 07:28:51;;;;;;;0.60;0.60;;;19.50;71.60;;;;;;5020092;28;20052;-21
2022/11/03 07:31:24;;;;;;;0.70;0.60;;;19.50;71.70;;;;;;4995966;28;20026;-20
2022/11/03 07:33:54;;;;;;;0.70;0.60;;;19.50;71.70;;;;;;5006554;28;20057;-20
2022/11/03 07:36:20;;;;;;;0.93;0.60;;;19.50;72.00;;;;;;5017374;28;20041;-20
2022/11/03 07:38:47;;;;;;;0.47;0.38;;;19.60;71.30;;;;;;5008039;28;20057;-21
2022/11/03 07:41:25;;;;;;;0.50;0.50;;;19.60;71.30;;;;;;5006767;28;20148;-21
2022/11/03 07:43:55;;;;;;;0.60;0.50;;;19.60;71.40;;;;;;5007592;28;20046;-21
2022/11/03 07:46:21;;;;;;;0.63;0.55;;;19.60;71.10;;;;;;5017519;28;20069;-21
2022/11/03 07:48:57;;;;;;;1.65;0.47;;;19.60;71.40;;;;;;5009828;28;20514;-20
2022/11/03 07:51:29;;;;;;;0.50;0.50;;;19.50;72.20;;;;;;5016155;28;20033;-20
2022/11/03 07:54:07;;;;;;;0.52;0.52;;;19.50;71.50;;;;;;4998664;28;20411;-25
2022/11/03 07:56:37;;;;;;;0.40;0.40;;;19.50;71.70;;;;;;5014243;28;20038;-20
2022/11/03 07:59:10;;;;;;;1.23;0.63;;;19.50;71.80;;;;;;5014736;28;20174;-21
2022/11/03 08:01:36;;;;;;;0.68;0.50;;;19.50;71.80;;;;;;5017990;28;20030;-21
2022/11/03 08:04:04;;;;;;;0.73;0.57;;;19.50;71.60;;;;;;5017370;28;20054;-22
2022/11/03 08:06:30;;;;;;;0.55;0.45;;;19.50;71.80;;;;;;5029144;28;20070;-21
2022/11/03 08:08:55;;;;;;;0.40;0.40;;;19.70;70.80;;;;;;5008064;28;20050;-20
2022/11/03 08:11:22;;;;;;;0.63;0.43;;;19.70;71.10;;;;;;5015671;28;20037;-21
2022/11/03 08:13:51;;;;;;;1.52;0.60;;;19.60;72.60;;;;;;5011074;28;20152;-21
2022/11/03 08:16:17;;;;;;;0.90;0.65;;;19.50;72.50;;;;;;4997278;28;20050;-20
2022/11/03 08:18:43;;;;;;;1.63;0.68;;;19.50;72.80;;;;;;5016204;28;20120;-21
2022/11/03 08:21:09;;;;;;;2.70;0.60;;;19.70;72.30;;;;;;5020378;28;20145;-21
2022/11/03 08:23:34;;;;;;;1.08;0.60;;;19.70;71.80;;;;;;5011621;28;20038;-21
2022/11/03 08:26:00;;;;;;;0.43;0.43;;;19.70;71.90;;;;;;5003419;28;20467;-21
2022/11/03 08:28:25;;;;;;;0.68;0.65;;;19.60;72.40;;;;;;4993442;28;20092;-21
2022/11/03 08:30:51;;;;;;;1.00;0.40;;;19.60;72.00;;;;;;5017548;28;20053;-21
2022/11/03 08:33:16;;;;;;;0.95;0.40;;;19.60;72.10;;;;;;5016137;28;20049;-21
2022/11/03 08:35:42;;;;;;;0.80;0.68;;;19.60;72.20;;;;;;5010634;28;20041;-22
2022/11/03 08:38:08;;;;;;;0.85;0.77;;;19.70;72.10;;;;;;5013846;28;20161;-21
2022/11/03 08:40:33;;;;;;;0.98;0.57;;;19.60;72.60;;;;;;5014102;28;20033;-21
2022/11/03 08:43:01;;;;;;;2.00;0.70;;;19.70;72.10;;;;;;5012421;28;20525;-20
2022/11/03 08:45:28;;;;;;;0.70;0.70;;;19.60;73.10;;;;;;5003466;28;20046;-21
2022/11/03 08:47:54;;;;;;;0.93;0.77;;;19.70;72.80;;;;;;4990700;28;20046;-22
2022/11/03 08:50:20;;;;;;;0.60;0.60;;;19.70;72.50;;;;;;4991726;28;20050;-20
2022/11/03 08:52:46;;;;;;;1.60;1.02;;;19.70;72.40;;;;;;4990398;28;20137;-20
2022/11/03 08:55:11;;;;;;;2.47;0.50;;;19.70;72.40;;;;;;4992905;28;20060;-21
2022/11/03 08:57:37;;;;;;;2.85;0.70;;;19.70;72.30;;;;;;4992480;28;20092;-20
2022/11/03 09:00:04;;;;;;;1.17;0.60;;;19.70;72.30;;;;;;4991779;28;20058;-20
2022/11/03 09:02:30;;;;;;;2.20;0.50;;;19.70;72.20;;;;;;4999307;28;20068;-24
2022/11/03 09:04:56;;;;;;;0.80;0.40;;;19.70;72.10;;;;;;4998256;28;20494;-22
2022/11/03 09:07:21;;;;;;;0.70;0.40;;;19.70;72.30;;;;;;4992357;28;20096;-23
2022/11/03 09:09:47;;;;;;;1.90;0.63;;;19.70;72.20;;;;;;4994429;28;20546;-22
2022/11/03 09:12:12;;;;;;;2.35;0.52;;;19.70;72.20;;;;;;4992974;28;20045;-21
2022/11/03 09:14:38;;;;;;;1.45;0.45;;;19.70;72.20;;;;;;4994319;28;20030;-20
2022/11/03 09:17:03;;;;;;;1.13;0.55;;;19.70;72.10;;;;;;4996832;28;20632;-21
2022/11/03 09:19:29;;;;;;;1.02;0.50;;;19.70;72.00;;;;;;4992352;28;20092;-22
2022/11/03 09:21:55;;;;;;;0.50;0.40;;;19.70;72.10;;;;;;4992058;28;20507;-21
2022/11/03 09:24:21;;;;;;;0.50;0.40;;;19.70;72.10;;;;;;4994877;28;20061;-20
2022/11/03 09:26:47;;;;;;;1.95;0.52;;;19.70;72.10;;;;;;4987661;28;20515;-31
2022/11/03 09:29:12;;;;;;;1.08;0.50;;;19.70;72.10;;;;;;4991379;28;20045;-21
2022/11/03 09:31:38;;;;;;;1.08;0.50;;;19.70;72.00;;;;;;4994313;28;20083;-21
2022/11/03 09:34:03;;;;;;;0.45;0.43;;;19.70;72.00;;;;;;4994507;28;20061;-21
2022/11/03 09:36:29;;;;;;;0.47;0.43;;;19.70;71.90;;;;;;5007550;28;20052;-22
2022/11/03 09:38:54;;;;;;;0.50;0.50;;;19.70;71.90;;;;;;4999693;28;20116;-21
2022/11/03 09:41:20;;;;;;;1.20;0.60;;;19.70;71.90;;;;;;5007948;28;20390;-21
2022/11/03 09:43:46;;;;;;;0.50;0.40;;;19.70;71.90;;;;;;4998393;28;20064;-21
2022/11/03 09:46:12;;;;;;;0.40;0.40;;;19.70;71.90;;;;;;4976841;28;20049;-21
2022/11/03 09:48:37;;;;;;;0.43;0.43;;;19.70;71.80;;;;;;5008753;28;20548;-19
2022/11/03 09:51:03;;;;;;;0.85;0.30;;;19.70;71.80;;;;;;5006411;28;20053;-20
2022/11/03 09:53:29;;;;;;;0.68;0.45;;;19.70;71.90;;;;;;5000690;28;20042;-21
2022/11/03 09:55:54;;;;;;;0.50;0.50;;;19.70;71.70;;;;;;5009643;28;20037;-21
2022/11/03 09:58:20;;;;;;;0.55;0.43;;;19.70;71.70;;;;;;4990640;28;20044;-21
2022/11/03 10:00:46;;;;;;;0.25;0.25;;;19.70;71.90;;;;;;4992163;28;20637;-21
2022/11/03 10:03:12;;;;;;;0.50;0.40;;;19.70;71.80;;;;;;5000397;28;20046;-21
2022/11/03 10:05:37;;;;;;;0.38;0.30;;;19.70;71.80;;;;;;5010359;28;20131;-21
2022/11/03 10:08:11;;;;;;;0.90;0.47;;;19.70;71.70;;;;;;5003366;28;20063;-21
2022/11/03 10:10:37;;;;;;;1.45;0.30;;;19.70;71.60;;;;;;5002005;28;20125;-19
2022/11/03 10:13:07;;;;;;;1.10;0.40;;;19.70;71.50;;;;;;5012779;28;20202;-22
2022/11/03 10:15:33;;;;;;;0.70;0.30;;;19.70;72.30;;;;;;5008134;28;20053;-21
2022/11/03 10:17:58;;;;;;;0.52;0.52;;;19.70;71.50;;;;;;5005813;28;20046;-24
2022/11/03 10:20:25;;;;;;;0.52;0.52;;;19.70;71.50;;;;;;4989679;28;20129;-21
2022/11/03 10:22:51;;;;;;;0.50;0.40;;;19.70;71.50;;;;;;4996533;28;20046;-21
2022/11/03 10:25:33;;;;;;;0.80;0.43;;;19.70;71.50;;;;;;4999289;28;20141;-21
2022/11/03 10:28:22;;;;;;;1.15;0.40;;;19.70;71.60;;;;;;4996313;28;20038;-27
2022/11/03 10:30:51;;;;;;;0.35;0.30;;;19.70;71.70;;;;;;5001784;28;20047;-23
2022/11/03 10:33:24;;;;;;;0.25;0.25;;;19.70;71.60;;;;;;4996872;28;20038;-21
2022/11/03 10:35:49;;;;;;;0.63;0.40;;;19.70;71.60;;;;;;4992849;28;20147;-21
2022/11/03 10:38:26;;;;;;;0.32;0.32;;;19.70;71.50;;;;;;4995931;28;20054;-20
2022/11/03 10:40:51;;;;;;;0.30;0.20;;;19.70;71.50;;;;;;4999006;28;20069;-27
2022/11/03 10:43:17;;;;;;;0.40;0.40;;;19.70;71.40;;;;;;4995830;28;20499;-21
2022/11/03 10:45:42;;;;;;;0.40;0.40;;;19.60;71.50;;;;;;4994950;28;20130;-28
2022/11/03 10:48:09;;;;;;;0.30;0.30;;;19.70;71.40;;;;;;5006824;28;20041;-20
2022/11/03 10:50:34;;;;;;;0.52;0.43;;;19.70;71.20;;;;;;5013391;28;20040;-23
2022/11/03 10:53:00;;;;;;;0.63;0.38;;;19.80;71.20;;;;;;5005097;28;20050;-24
2022/11/03 10:55:26;;;;;;;0.40;0.30;;;19.90;70.70;;;;;;5003885;28;20050;-23
2022/11/03 10:57:51;;;;;;;1.75;0.30;;;19.70;70.90;;;;;;4996247;28;20054;-23
2022/11/03 11:00:17;;;;;;;0.30;0.30;;;19.70;71.20;;;;;;4997821;28;20045;-23
2022/11/03 11:02:47;;;;;;;1.23;0.43;;;19.70;71.10;;;;;;5014724;28;20072;-22
2022/11/03 11:05:17;;;;;;;0.20;0.20;;;19.70;70.90;;;;;;5017585;28;20135;-21
2022/11/03 11:07:43;;;;;;;0.22;0.22;;;19.70;71.40;;;;;;5011865;28;20084;-21
2022/11/03 11:10:18;;;;;;;0.40;0.30;;;19.70;71.20;;;;;;5018185;28;20070;-21
2022/11/03 11:13:02;;;;;;;0.90;0.20;;;19.70;71.30;;;;;;4995885;28;20080;-21
2022/11/03 11:15:48;;;;;;;0.30;0.30;;;19.70;71.30;;;;;;4997501;28;20046;-22
2022/11/03 11:18:26;;;;;;;0.22;0.22;;;19.70;71.30;;;;;;4989957;28;20046;-21
2022/11/03 11:20:52;;;;;;;0.20;0.20;;;19.60;71.40;;;;;;4992960;28;20057;-24
2022/11/03 11:23:27;;;;;;;0.22;0.20;;;19.70;71.00;;;;;;4989904;28;20046;-20
2022/11/03 11:26:08;;;;;;;0.10;0.10;;;19.60;71.10;;;;;;4993615;28;20042;-21
2022/11/03 11:28:43;;;;;;;0.43;0.43;;;19.60;71.30;;;;;;4991121;28;20042;-21
2022/11/03 11:31:29;;;;;;;1.33;0.40;;;19.60;71.50;;;;;;4990420;28;20521;-22
2022/11/03 11:34:11;;;;;;;0.20;0.13;;;19.60;71.50;;;;;;4989114;28;20514;-21
2022/11/03 11:36:39;;;;;;;0.50;0.50;;;19.60;71.60;;;;;;4994684;28;20045;-21
2022/11/03 11:39:23;;;;;;;0.63;0.63;;;19.60;72.40;;;;;;4994353;28;20042;-21
2022/11/03 11:42:16;;;;;;;0.60;0.60;;;19.60;71.90;;;;;;4637907;28;10000554;-21
2022/11/03 11:44:41;;;;;;;0.82;0.82;;;19.70;72.30;;;;;;4988161;28;20222;-21
2022/11/03 11:47:37;;;;;;;0.60;0.60;;;19.70;72.30;;;;;;4991709;28;20124;-21
2022/11/03 11:50:06;;;;;;;0.60;0.60;;;19.70;72.40;;;;;;4991101;28;20145;-21
2022/11/03 11:52:39;;;;;;;0.68;0.68;;;19.70;72.40;;;;;;4989498;28;20165;-21
2022/11/03 11:55:05;;;;;;;0.52;0.50;;;19.70;72.30;;;;;;4987690;28;22301;-21
2022/11/03 11:57:32;;;;;;;0.50;0.50;;;19.70;72.40;;;;;;4990109;28;20142;-21
2022/11/03 11:59:58;;;;;;;0.47;0.47;;;19.70;72.30;;;;;;4999371;28;20451;-21
2022/11/03 12:02:24;;;;;;;0.40;0.40;;;19.70;72.20;;;;;;4989027;28;20263;-21
2022/11/03 12:05:01;;;;;;;0.50;0.50;;;19.70;72.30;;;;;;4987582;28;20627;-21
2022/11/03 12:07:34;;;;;;;0.65;0.50;;;19.70;72.10;;;;;;4989639;28;20043;-20
2022/11/03 12:10:11;;;;;;;0.47;0.47;;;19.70;72.20;;;;;;4989656;28;20058;-21
2022/11/03 12:12:37;;;;;;;0.45;0.40;;;19.70;71.90;;;;;;4997877;28;20050;-21
2022/11/03 12:15:03;;;;;;;0.57;0.40;;;19.80;71.50;;;;;;4988972;28;20490;-21
2022/11/03 12:17:28;;;;;;;0.60;0.60;;;19.80;71.70;;;;;;4984707;28;20048;-21
2022/11/03 12:19:54;;;;;;;0.60;0.50;;;19.80;71.70;;;;;;4989405;28;20062;-20
2022/11/03 12:22:22;;;;;;;1.45;0.50;;;19.80;71.70;;;;;;4983916;28;20046;-25
2022/11/03 12:24:49;;;;;;;0.35;0.32;;;19.80;71.70;;;;;;4985636;28;20042;-24
2022/11/03 12:27:24;;;;;;;0.50;0.32;;;19.80;71.60;;;;;;4988796;28;20054;-21
2022/11/03 12:29:57;;;;;;;0.30;0.30;;;19.80;71.60;;;;;;4986055;28;20042;-21
2022/11/03 12:32:22;;;;;;;0.52;0.30;;;19.90;71.50;;;;;;4987702;28;20049;-21
2022/11/03 12:34:48;;;;;;;0.68;0.68;;;19.90;71.50;;;;;;4987053;28;20654;-21
2022/11/03 12:37:14;;;;;;;0.40;0.32;;;20.00;71.40;;;;;;4981414;28;20088;-21
2022/11/03 12:39:39;;;;;;;0.52;0.40;;;20.30;70.50;;;;;;4986606;28;20031;-22
2022/11/03 12:42:05;;;;;;;0.32;0.30;;;20.40;69.70;;;;;;4982591;28;20053;-21
2022/11/03 12:44:31;;;;;;;0.30;0.30;;;20.30;69.90;;;;;;4984408;28;20581;-22
2022/11/03 12:46:57;;;;;;;0.28;0.28;;;20.20;70.90;;;;;;4985686;28;20893;-29
2022/11/03 12:49:22;;;;;;;0.50;0.50;;;20.40;69.80;;;;;;4986797;28;20050;-22
2022/11/03 12:51:48;;;;;;;0.40;0.40;;;20.50;69.40;;;;;;4978281;28;20058;-21
2022/11/03 12:54:14;;;;;;;0.22;0.22;;;20.60;69.10;;;;;;4977410;28;20054;-23
2022/11/03 12:56:39;;;;;;;0.43;0.30;;;20.60;69.00;;;;;;4976787;28;20471;-21
2022/11/03 12:59:05;;;;;;;0.40;0.40;;;20.60;68.80;;;;;;4967058;28;20623;-21
2022/11/03 13:01:31;;;;;;;0.38;0.25;;;20.70;68.40;;;;;;4630059;28;10000367;-21
2022/11/03 13:03:57;;;;;;;0.40;0.20;;;20.50;69.00;;;;;;4976901;28;20042;-22
2022/11/03 13:06:23;;;;;;;0.30;0.30;;;20.50;69.20;;;;;;4985857;28;20060;-22
2022/11/03 13:08:49;;;;;;;1.67;0.25;;;20.50;69.10;;;;;;4630912;28;10000241;-22
2022/11/03 13:13:59;;;;;;;0.35;0.30;;;20.30;69.70;;;;;;4983266;28;21457;-21
2022/11/03 13:16:24;;;;;;;0.32;0.30;;;20.20;70.00;;;;;;4985723;28;20042;-28
2022/11/03 13:18:50;;;;;;;0.47;0.40;;;20.20;70.10;;;;;;5000990;28;20049;-25
2022/11/03 13:21:15;;;;;;;0.40;0.30;;;20.20;70.60;;;;;;4990397;28;20042;-21